Svitzer Stanlow — MLNF7 — position and weather

sailwx.info

Track history (hours):
 
Tides and Currents Weather Stations Pressure Air Temp Water Temp Dewpoint Dewpoint Depression Visibility Wind Speed Wind Dir Waves Ship Positions

Svitzer Stanlow

Last reported at 2017-Jun-29 00:00 UTC. Time now 2017-Jun-29 00:27 UTC.
Position N 53°27' W 003°02'.

Length 39 m.

Type: Tug. MMSI: 235010620.

Date/timePositionNaut miles runAvg speedWind from/ knotsBaromVisibWave heightAir tempDewpointWater temp
2017-Jun-29 00:00N 53°27' W 003°02'1 1.6
2017-Jun-28 23:30N 53°27' W 003°01'0 0.7
2017-Jun-28 23:00N 53°27' W 003°01'0 0.6
2017-Jun-28 22:30N 53°28' W 003°01'0 0.4
2017-Jun-28 21:58N 53°28' W 003°01'1 2.8
2017-Jun-28 21:30N 53°26' W 003°00'1 1.8
2017-Jun-28 20:59N 53°25' W 003°00'0 0.0
2017-Jun-28 20:29N 53°25' W 003°00'0 0.0
2017-Jun-28 19:59N 53°25' W 003°00'0 0.0
2017-Jun-28 19:29N 53°25' W 003°00'0 0.0
2017-Jun-28 18:59N 53°25' W 003°00'0 0.0
2017-Jun-28 18:23N 53°25' W 003°00'0 0.0
2017-Jun-28 17:59N 53°25' W 003°00'0 0.0
2017-Jun-28 17:26N 53°25' W 003°00'0 0.0
2017-Jun-28 16:56N 53°25' W 003°00'0 0.0
2017-Jun-28 16:29N 53°25' W 003°00'0 0.0
2017-Jun-28 15:59N 53°25' W 003°00'0 0.0
2017-Jun-28 15:29N 53°25' W 003°00'0 0.0
2017-Jun-28 14:59N 53°25' W 003°00'0 0.0
2017-Jun-28 13:59N 53°25' W 003°00'0 0.0
2017-Jun-28 13:29N 53°25' W 003°00'2 3.7
2017-Jun-28 13:00N 53°27' W 003°01'0 0.8
2017-Jun-28 12:29N 53°28' W 003°01'0 0.6
2017-Jun-28 11:59N 53°28' W 003°01'2 3.2
2017-Jun-28 11:17N 53°25' W 003°00'0 0.0
2017-Jun-28 10:53N 53°25' W 003°00'0 0.0
2017-Jun-28 10:29N 53°25' W 003°00'0 0.0
2017-Jun-28 09:59N 53°25' W 003°00'0 0.0
2017-Jun-28 09:26N 53°25' W 003°00'0 0.0
2017-Jun-28 08:59N 53°25' W 003°00'0 0.0
2017-Jun-28 08:29N 53°25' W 003°00'0 0.0
2017-Jun-28 07:59N 53°25' W 003°00'0 0.0
2017-Jun-28 07:26N 53°25' W 003°00'0 0.0
2017-Jun-28 06:59N 53°25' W 003°00'0 0.0
2017-Jun-28 06:29N 53°25' W 003°00'0 0.0
2017-Jun-28 05:59N 53°25' W 003°00'0 0.0
2017-Jun-28 05:29N 53°25' W 003°00'0 0.0
2017-Jun-28 04:59N 53°25' W 003°00'0 0.0
2017-Jun-28 04:23N 53°25' W 003°00'0 0.0
2017-Jun-28 03:59N 53°25' W 003°00'0 0.0
2017-Jun-28 03:29N 53°25' W 003°00'0 0.0
2017-Jun-28 02:59N 53°25' W 003°00'0 0.0
2017-Jun-28 02:26N 53°25' W 003°00'0 0.0
2017-Jun-28 01:56N 53°25' W 003°00'0 0.0
2017-Jun-28 01:29N 53°25' W 003°00'0 0.0
2017-Jun-28 00:56N 53°25' W 003°00'0 0.0
2017-Jun-28 00:29N 53°25' W 003°00'0 0.0
2017-Jun-27 23:59N 53°25' W 003°00'2 3.3
2017-Jun-27 23:30N 53°27' W 003°01'0 0.4
2017-Jun-27 23:00N 53°27' W 003°01'0 0.4
2017-Jun-27 22:25N 53°27' W 003°01'3 7.4
2017-Jun-27 22:00N 53°24' W 003°00'1 2.4
2017-Jun-27 21:30N 53°23' W 002°60'0 0.2
2017-Jun-27 20:59N 53°23' W 002°60'0 0.0
2017-Jun-27 20:23N 53°23' W 002°60'0 0.0
2017-Jun-27 19:59N 53°23' W 002°60'0 0.0
2017-Jun-27 19:29N 53°23' W 002°60'0 0.0
2017-Jun-27 18:59N 53°23' W 002°60'0 0.0
2017-Jun-27 18:29N 53°23' W 002°60'0 0.0
2017-Jun-27 17:59N 53°23' W 002°60'0 0.0
2017-Jun-27 17:29N 53°23' W 002°60'0 0.0
2017-Jun-27 16:59N 53°23' W 002°60'1 1.8
2017-Jun-27 16:30N 53°24' W 003°00'1 1.4
2017-Jun-27 15:53N 53°24' W 003°00'2 3.9
2017-Jun-27 15:26N 53°23' W 002°60'0 0.0
2017-Jun-27 14:59N 53°23' W 002°60'0 0.0
2017-Jun-27 14:23N 53°23' W 002°60'0 0.0
2017-Jun-27 13:26N 53°23' W 002°60'0 0.0
2017-Jun-27 12:59N 53°23' W 002°60'0 0.0
2017-Jun-27 12:26N 53°23' W 002°60'0 0.0
2017-Jun-27 11:59N 53°23' W 002°60'0 0.0
2017-Jun-27 11:26N 53°23' W 002°60'0 0.0
2017-Jun-27 10:59N 53°23' W 002°60'0 0.0
2017-Jun-27 10:29N 53°23' W 002°60'0 0.0
2017-Jun-27 09:56N 53°23' W 002°60'0 0.0
2017-Jun-27 09:29N 53°23' W 002°60'0 0.0
2017-Jun-27 08:47N 53°23' W 002°60'0 0.0
2017-Jun-27 08:29N 53°23' W 002°60'0 0.0
2017-Jun-27 07:59N 53°23' W 002°60'0 0.0
2017-Jun-27 07:26N 53°23' W 002°60'0 0.0
2017-Jun-27 06:59N 53°23' W 002°60'0 0.0
2017-Jun-27 06:26N 53°23' W 002°60'0 0.0
2017-Jun-27 05:56N 53°23' W 002°60'0 0.0
2017-Jun-27 05:29N 53°23' W 002°60'0 0.0
2017-Jun-27 04:59N 53°23' W 002°60'0 0.0
2017-Jun-27 04:26N 53°23' W 002°60'0 0.0
2017-Jun-27 03:56N 53°23' W 002°60'0 0.0
2017-Jun-27 03:29N 53°23' W 002°60'0 0.0
2017-Jun-27 02:56N 53°23' W 002°60'0 0.0
2017-Jun-27 02:26N 53°23' W 002°60'0 0.0
2017-Jun-27 01:56N 53°23' W 002°60'0 0.0
2017-Jun-27 01:26N 53°23' W 002°60'0 0.0
2017-Jun-27 00:59N 53°23' W 002°60'4 7.1
2017-Jun-27 00:25N 53°27' W 003°01'0 0.4
2017-Jun-27 00:00N 53°26' W 003°01'4 7.2
2017-Jun-26 23:30N 53°23' W 002°60'0 0.6
2017-Jun-26 23:00N 53°23' W 002°60'0 0.0
2017-Jun-26 22:30N 53°23' W 002°60'0 0.0
2017-Jun-26 22:00N 53°23' W 002°60'0 0.0
2017-Jun-26 21:24N 53°23' W 002°60'0 0.0
2017-Jun-26 21:00N 53°23' W 002°60'0 0.0
2017-Jun-26 20:30N 53°23' W 002°60'0 0.0
2017-Jun-26 20:00N 53°23' W 002°60'0 0.0
2017-Jun-26 19:27N 53°23' W 002°60'0 0.0
2017-Jun-26 19:00N 53°23' W 002°60'0 0.0
2017-Jun-26 18:29N 53°23' W 002°60'0 0.0
2017-Jun-26 17:53N 53°23' W 002°60'0 0.0
2017-Jun-26 17:26N 53°23' W 002°60'0 0.0
2017-Jun-26 16:59N 53°23' W 002°60'0 0.0
2017-Jun-26 16:26N 53°23' W 002°60'0 0.0
2017-Jun-26 15:59N 53°23' W 002°60'0 0.0
2017-Jun-26 15:26N 53°23' W 002°60'0 0.0
2017-Jun-26 14:56N 53°23' W 002°60'0 0.0
2017-Jun-26 14:29N 53°23' W 002°60'0 0.0
2017-Jun-26 13:29N 53°23' W 002°60'0 0.4
2017-Jun-26 12:53N 53°23' W 003°00'0 1.0
2017-Jun-26 12:29N 53°23' W 003°00'2 5.2
2017-Jun-26 12:00N 53°26' W 003°01'4 8.8
2017-Jun-26 11:30N 53°29' W 003°05'4 8.5
2017-Jun-26 11:00N 53°32' W 003°11'5 9.0
2017-Jun-26 10:30N 53°29' W 003°05'4 7.7
2017-Jun-26 10:00N 53°26' W 003°01'2 3.3
2017-Jun-26 09:29N 53°25' W 003°00'3 5.4
2017-Jun-26 09:00N 53°27' W 003°01'0 0.2
2017-Jun-26 08:30N 53°27' W 003°01'2 3.6
2017-Jun-26 08:00N 53°25' W 003°00'0 0.0
2017-Jun-26 07:30N 53°25' W 003°00'0 0.0
2017-Jun-26 07:00N 53°25' W 003°00'0 0.0
2017-Jun-26 06:29N 53°25' W 003°00'0 0.0
2017-Jun-26 05:59N 53°25' W 003°00'0 0.0
2017-Jun-26 05:29N 53°25' W 003°00'0 0.0
2017-Jun-26 04:59N 53°25' W 003°00'0 0.0
2017-Jun-26 04:29N 53°25' W 003°00'0 0.0
2017-Jun-26 03:56N 53°25' W 003°00'0 0.0
2017-Jun-26 03:29N 53°25' W 003°00'0 0.0
2017-Jun-26 02:56N 53°25' W 003°00'0 0.0
2017-Jun-26 02:29N 53°25' W 003°00'0 0.0
2017-Jun-26 01:56N 53°25' W 003°00'0 0.0
2017-Jun-26 01:29N 53°25' W 003°00'0 0.0
2017-Jun-26 00:59N 53°25' W 003°00'0 0.0
2017-Jun-26 00:29N 53°25' W 003°00'0 0.0
2017-Jun-25 23:59N 53°25' W 003°00'0 0.0
2017-Jun-25 23:29N 53°25' W 003°00'0 0.0
2017-Jun-25 22:59N 53°25' W 003°00'0 0.0
2017-Jun-25 22:29N 53°25' W 003°00'0 0.0
2017-Jun-25 21:59N 53°25' W 003°00'0 0.0
2017-Jun-25 21:29N 53°25' W 003°00'0 0.0
2017-Jun-25 20:59N 53°25' W 003°00'0 0.0
2017-Jun-25 20:29N 53°25' W 003°00'0 0.0
2017-Jun-25 19:59N 53°25' W 003°00'0 0.0
2017-Jun-25 19:29N 53°25' W 003°00'0 0.0
2017-Jun-25 18:59N 53°25' W 003°00'0 0.0
2017-Jun-25 18:29N 53°25' W 003°00'0 0.0
2017-Jun-25 17:59N 53°25' W 003°00'0 0.0
2017-Jun-25 17:29N 53°25' W 003°00'0 0.0
2017-Jun-25 16:59N 53°25' W 003°00'0 0.0
2017-Jun-25 16:29N 53°25' W 003°00'0 0.0
2017-Jun-25 15:59N 53°25' W 003°00'0 0.0
2017-Jun-25 15:29N 53°25' W 003°00'0 0.0
2017-Jun-25 14:59N 53°25' W 003°00'0 0.0
2017-Jun-25 14:26N 53°25' W 003°00'0 0.0
2017-Jun-25 13:29N 53°25' W 003°00'0 0.0
2017-Jun-25 12:59N 53°25' W 003°00'0 0.0
2017-Jun-25 12:29N 53°25' W 003°00'0 0.0
2017-Jun-25 11:59N 53°25' W 003°00'0 0.0
2017-Jun-25 11:29N 53°25' W 003°00'0 0.0
2017-Jun-25 10:56N 53°25' W 003°00'0 0.0
2017-Jun-25 10:29N 53°25' W 003°00'0 0.0
2017-Jun-25 09:59N 53°25' W 003°00'0 0.0
2017-Jun-25 09:26N 53°25' W 003°00'0 0.0
2017-Jun-25 08:59N 53°25' W 003°00'0 0.0
2017-Jun-25 08:29N 53°25' W 003°00'0 0.0
2017-Jun-25 07:59N 53°25' W 003°00'0 0.0
2017-Jun-25 07:29N 53°25' W 003°00'0 0.0
2017-Jun-25 06:59N 53°25' W 003°00'0 0.0
2017-Jun-25 06:29N 53°25' W 003°00'0 0.0
2017-Jun-25 05:59N 53°25' W 003°00'0 0.0
2017-Jun-25 05:29N 53°25' W 003°00'0 0.0
2017-Jun-25 04:56N 53°25' W 003°00'0 0.0
2017-Jun-25 04:29N 53°25' W 003°00'0 0.0
2017-Jun-25 03:59N 53°25' W 003°00'0 0.0
2017-Jun-25 03:29N 53°25' W 003°00'0 0.0
2017-Jun-25 02:59N 53°25' W 003°00'0 0.0
2017-Jun-25 02:26N 53°25' W 003°00'0 0.0
2017-Jun-25 01:59N 53°25' W 003°00'0 0.0
2017-Jun-25 01:29N 53°25' W 003°00'0 0.0
2017-Jun-25 00:56N 53°25' W 003°00'0 0.0
2017-Jun-25 00:29N 53°25' W 003°00'0 0.0
2017-Jun-24 23:56N 53°25' W 003°00'0 0.0
2017-Jun-24 23:29N 53°25' W 003°00'0 0.0
2017-Jun-24 22:59N 53°25' W 003°00'0 0.0
2017-Jun-24 22:29N 53°25' W 003°00'0 0.0
2017-Jun-24 21:59N 53°25' W 003°00'0 0.0
2017-Jun-24 21:28N 53°25' W 003°00'0 0.0
2017-Jun-24 20:58N 53°25' W 003°00'0 0.0
2017-Jun-24 20:28N 53°25' W 003°00'0 0.0
2017-Jun-24 19:58N 53°25' W 003°00'0 0.0
2017-Jun-24 19:22N 53°25' W 003°00'0 0.0
2017-Jun-24 18:55N 53°25' W 003°00'0 0.0
2017-Jun-24 18:28N 53°25' W 003°00'0 0.0
2017-Jun-24 17:58N 53°25' W 003°00'0 0.0
2017-Jun-24 17:28N 53°25' W 003°00'0 0.0
2017-Jun-24 16:58N 53°25' W 003°00'0 0.0
2017-Jun-24 16:28N 53°25' W 003°00'0 0.0
2017-Jun-24 15:58N 53°25' W 003°00'0 0.0
2017-Jun-24 15:25N 53°25' W 003°00'0 0.0
2017-Jun-24 14:58N 53°25' W 003°00'0 0.0
2017-Jun-24 13:58N 53°25' W 003°00'0 0.0
2017-Jun-24 13:25N 53°25' W 003°00'0 0.0
2017-Jun-24 12:58N 53°25' W 003°00'0 0.0
2017-Jun-24 12:25N 53°25' W 003°00'0 0.0
2017-Jun-24 11:58N 53°25' W 003°00'0 0.0
2017-Jun-24 11:28N 53°25' W 003°00'0 0.0
2017-Jun-24 10:58N 53°25' W 003°00'0 0.0
2017-Jun-24 10:25N 53°25' W 003°00'0 0.0
2017-Jun-24 09:58N 53°25' W 003°00'0 0.0
2017-Jun-24 09:28N 53°25' W 003°00'0 0.0
2017-Jun-24 08:58N 53°25' W 003°00'0 0.0
2017-Jun-24 08:25N 53°25' W 003°00'0 0.0
2017-Jun-24 07:58N 53°25' W 003°00'0 0.0
2017-Jun-24 07:28N 53°25' W 003°00'0 0.0
2017-Jun-24 06:58N 53°25' W 003°00'0 0.0
2017-Jun-24 06:28N 53°25' W 003°00'0 0.0
2017-Jun-24 05:58N 53°25' W 003°00'0 0.0
2017-Jun-24 05:28N 53°25' W 003°00'0 0.0
2017-Jun-24 04:58N 53°25' W 003°00'0 0.0
2017-Jun-24 04:28N 53°25' W 003°00'0 0.0
2017-Jun-24 03:58N 53°25' W 003°00'0 0.0
2017-Jun-24 03:28N 53°25' W 003°00'0 0.0
2017-Jun-24 02:58N 53°25' W 003°00'0 0.0
2017-Jun-24 02:28N 53°25' W 003°00'0 0.0
2017-Jun-24 01:58N 53°25' W 003°00'0 0.0
2017-Jun-24 01:25N 53°25' W 003°00'0 0.0
2017-Jun-24 00:58N 53°25' W 003°00'0 0.0
2017-Jun-24 00:28N 53°25' W 003°00'0 0.0
2017-Jun-23 23:58N 53°25' W 003°00'0 0.0
2017-Jun-23 23:28N 53°25' W 003°00'0 0.0
2017-Jun-23 22:58N 53°25' W 003°00'0 0.0
2017-Jun-23 22:28N 53°25' W 003°00'0 0.0
2017-Jun-23 21:55N 53°25' W 003°00'0 0.0
2017-Jun-23 21:28N 53°25' W 003°00'0 0.0
2017-Jun-23 20:58N 53°25' W 003°00'0 0.0
2017-Jun-23 20:28N 53°25' W 003°00'0 0.0
2017-Jun-23 19:58N 53°25' W 003°00'0 0.0
2017-Jun-23 19:28N 53°25' W 003°00'0 0.0
2017-Jun-23 18:58N 53°25' W 003°00'0 0.0
2017-Jun-23 18:22N 53°25' W 003°00'0 0.0
2017-Jun-23 17:58N 53°25' W 003°00'0 0.0
2017-Jun-23 17:28N 53°25' W 003°00'0 0.0
2017-Jun-23 16:58N 53°25' W 003°00'0 0.0
2017-Jun-23 16:25N 53°25' W 003°00'0 0.0
2017-Jun-23 15:58N 53°25' W 003°00'0 0.0
2017-Jun-23 15:28N 53°25' W 003°00'0 0.0
2017-Jun-23 14:58N 53°25' W 003°00'0 0.0
2017-Jun-23 13:58N 53°25' W 003°00'0 0.0
2017-Jun-23 13:28N 53°25' W 003°00'0 0.0
2017-Jun-23 12:55N 53°25' W 003°00'0 0.0
2017-Jun-23 12:24N 53°25' W 003°00'0 0.0
2017-Jun-23 12:00N 53°25' W 003°00'0 0.0
2017-Jun-23 11:27N 53°25' W 003°00'0 0.0
2017-Jun-23 10:57N 53°25' W 003°00'0 0.0
2017-Jun-23 10:30N 53°25' W 003°00'0 0.0
2017-Jun-23 10:00N 53°25' W 003°00'0 0.0
2017-Jun-23 09:30N 53°25' W 003°00'0 0.0
2017-Jun-23 08:57N 53°25' W 003°00'0 0.0
2017-Jun-23 08:30N 53°25' W 003°00'0 0.0
2017-Jun-23 08:00N 53°25' W 003°00'0 0.0
2017-Jun-23 07:30N 53°25' W 003°00'0 0.0
2017-Jun-23 07:00N 53°25' W 003°00'0 0.0
2017-Jun-23 06:27N 53°25' W 003°00'0 0.0
2017-Jun-23 06:00N 53°25' W 003°00'0 0.0
2017-Jun-23 05:30N 53°25' W 003°00'0 0.0
2017-Jun-23 04:57N 53°25' W 003°00'0 0.0
2017-Jun-23 04:30N 53°25' W 003°00'0 0.0
2017-Jun-23 04:00N 53°25' W 003°00'0 0.0
2017-Jun-23 03:30N 53°25' W 003°00'0 0.0
2017-Jun-23 03:00N 53°25' W 003°00'0 0.0
2017-Jun-23 02:27N 53°25' W 003°00'0 0.0
2017-Jun-23 01:57N 53°25' W 003°00'0 0.0
2017-Jun-23 01:30N 53°25' W 003°00'0 0.0
2017-Jun-23 00:57N 53°25' W 003°00'0 0.0
2017-Jun-23 00:30N 53°25' W 003°00'0 0.0
2017-Jun-23 00:00N 53°25' W 003°00'0 0.0
2017-Jun-22 23:27N 53°25' W 003°00'0 0.0
2017-Jun-22 22:57N 53°25' W 003°00'0 0.0
2017-Jun-22 22:30N 53°25' W 003°00'0 0.0
2017-Jun-22 22:00N 53°25' W 003°00'0 0.0
2017-Jun-22 21:24N 53°25' W 003°00'0 0.0
2017-Jun-22 21:00N 53°25' W 003°00'0 0.0
2017-Jun-22 20:30N 53°25' W 003°00'0 0.0
2017-Jun-22 19:51N 53°25' W 003°00'0 0.0
2017-Jun-22 19:30N 53°25' W 003°00'0 0.0
2017-Jun-22 18:57N 53°25' W 003°00'0 0.0
2017-Jun-22 18:30N 53°25' W 003°00'0 0.0
2017-Jun-22 18:00N 53°25' W 003°00'0 0.0
2017-Jun-22 17:30N 53°25' W 003°00'0 0.0
2017-Jun-22 17:00N 53°25' W 003°00'0 0.0
2017-Jun-22 16:30N 53°25' W 003°00'0 0.0
2017-Jun-22 16:00N 53°25' W 003°00'0 0.0
2017-Jun-22 15:24N 53°25' W 003°00'0 0.0
2017-Jun-22 15:00N 53°25' W 003°00'0 0.0
2017-Jun-22 14:00N 53°25' W 003°00'0 0.0
2017-Jun-22 13:30N 53°25' W 003°00'0 0.0
2017-Jun-22 13:00N 53°25' W 003°00'0 0.0
2017-Jun-22 12:30N 53°25' W 003°00'0 0.0
2017-Jun-22 11:57N 53°25' W 003°00'0 0.0
2017-Jun-22 11:27N 53°25' W 003°00'0 0.0
2017-Jun-22 11:00N 53°25' W 003°00'0 0.0
2017-Jun-22 10:30N 53°25' W 003°00'0 0.0
2017-Jun-22 10:00N 53°25' W 003°00'0 0.0
2017-Jun-22 09:30N 53°25' W 003°00'0 0.0
2017-Jun-22 08:57N 53°25' W 003°00'1 1.2
2017-Jun-22 08:30N 53°26' W 003°00'1 2.9
2017-Jun-22 08:00N 53°27' W 003°01'0 0.6
2017-Jun-22 07:30N 53°28' W 003°01'0 0.1
2017-Jun-22 07:00N 53°28' W 003°01'0 0.0
2017-Jun-22 06:30N 53°28' W 003°01'0 0.0
2017-Jun-22 06:00N 53°28' W 003°01'2 4.1
2017-Jun-22 05:28N 53°25' W 003°00'0 0.0
2017-Jun-22 04:58N 53°25' W 003°00'0 0.0
2017-Jun-22 04:30N 53°25' W 003°00'0 0.0
2017-Jun-22 04:00N 53°25' W 003°00'0 0.0
2017-Jun-22 03:30N 53°25' W 003°00'0 0.0
2017-Jun-22 03:00N 53°25' W 003°00'0 0.0
2017-Jun-22 02:30N 53°25' W 003°00'0 0.0
2017-Jun-22 02:00N 53°25' W 003°00'0 0.0
2017-Jun-22 01:30N 53°25' W 003°00'0 0.0
2017-Jun-22 01:00N 53°25' W 003°00'0 0.0
2017-Jun-22 00:30N 53°25' W 003°00'0 0.0
2017-Jun-22 00:00N 53°25' W 003°00'0 0.0
2017-Jun-21 23:30N 53°25' W 003°00'0 0.0
2017-Jun-21 23:00N 53°25' W 003°00'0 0.0
2017-Jun-21 22:30N 53°25' W 003°00'0 0.0
2017-Jun-21 22:00N 53°25' W 003°00'0 0.0
2017-Jun-21 21:30N 53°25' W 003°00'0 0.0
2017-Jun-21 21:00N 53°25' W 003°00'0 0.0
2017-Jun-21 20:30N 53°25' W 003°00'0 0.0
2017-Jun-21 20:00N 53°25' W 003°00'0 0.0
2017-Jun-21 19:30N 53°25' W 003°00'0 0.0
2017-Jun-21 18:57N 53°25' W 003°00'0 0.0
2017-Jun-21 18:30N 53°25' W 003°00'0 0.0
2017-Jun-21 18:00N 53°25' W 003°00'0 0.0
2017-Jun-21 17:30N 53°25' W 003°00'0 0.0
2017-Jun-21 16:57N 53°25' W 003°00'0 0.0
2017-Jun-21 16:27N 53°25' W 003°00'0 0.0
2017-Jun-21 16:00N 53°25' W 003°00'0 0.0
2017-Jun-21 15:30N 53°25' W 003°00'0 0.0
2017-Jun-21 14:57N 53°25' W 003°00'0 0.0
2017-Jun-21 14:00N 53°25' W 003°00'0 0.0
2017-Jun-21 13:30N 53°25' W 003°00'0 0.0
2017-Jun-21 12:57N 53°25' W 003°00'0 0.0
2017-Jun-21 12:30N 53°25' W 003°00'0 0.0
2017-Jun-21 12:00N 53°25' W 003°00'0 0.0
2017-Jun-21 11:27N 53°25' W 003°00'0 0.0
2017-Jun-21 11:00N 53°25' W 003°00'0 0.0
2017-Jun-21 10:30N 53°25' W 003°00'0 0.0
2017-Jun-21 10:00N 53°25' W 003°00'0 0.0
2017-Jun-21 09:30N 53°25' W 003°00'0 0.0
2017-Jun-21 09:00N 53°25' W 003°00'0 0.0
2017-Jun-21 08:30N 53°25' W 003°00'0 0.0
2017-Jun-21 08:00N 53°25' W 003°00'1 2.4
2017-Jun-21 07:31N 53°27' W 003°01'1 1.8
2017-Jun-21 06:59N 53°27' W 003°01'0 0.6
2017-Jun-21 06:30N 53°27' W 003°01'2 3.5
2017-Jun-21 05:59N 53°25' W 003°00'0 0.0
2017-Jun-21 05:29N 53°25' W 003°00'0 0.0
2017-Jun-21 04:59N 53°25' W 003°00'0 0.0
2017-Jun-21 04:29N 53°25' W 003°00'0 0.0
2017-Jun-21 03:59N 53°25' W 003°00'0 0.0
2017-Jun-21 03:29N 53°25' W 003°00'0 0.0
2017-Jun-21 02:56N 53°25' W 003°00'0 0.0
2017-Jun-21 02:29N 53°25' W 003°00'0 0.0
2017-Jun-21 01:59N 53°25' W 003°00'0 0.0
2017-Jun-21 01:29N 53°25' W 003°00'0 0.0
2017-Jun-21 00:56N 53°25' W 003°00'0 0.0
2017-Jun-21 00:29N 53°25' W 003°00'0 0.0
2017-Jun-20 23:59N 53°25' W 003°00'0 0.0
2017-Jun-20 23:29N 53°25' W 003°00'0 0.0
2017-Jun-20 22:56N 53°25' W 003°00'0 0.0
2017-Jun-20 22:29N 53°25' W 003°00'0 0.0
2017-Jun-20 21:59N 53°25' W 003°00'0 0.0
2017-Jun-20 21:23N 53°25' W 003°00'0 0.0
2017-Jun-20 20:56N 53°25' W 003°00'0 0.0
2017-Jun-20 20:29N 53°25' W 003°00'1 2.1
2017-Jun-20 20:00N 53°26' W 003°00'0 0.3
2017-Jun-20 19:28N 53°26' W 003°01'2 3.8
2017-Jun-20 19:00N 53°25' W 003°00'2 3.9
2017-Jun-20 18:30N 53°23' W 002°60'0 0.2
2017-Jun-20 18:00N 53°23' W 002°60'0 0.3
2017-Jun-20 17:26N 53°23' W 003°00'0 0.0
2017-Jun-20 16:59N 53°23' W 003°00'0 0.0
2017-Jun-20 16:29N 53°23' W 003°00'0 0.0
2017-Jun-20 15:59N 53°23' W 003°00'0 0.0
2017-Jun-20 15:29N 53°23' W 003°00'0 0.0
2017-Jun-20 14:59N 53°23' W 003°00'0 0.0
2017-Jun-20 14:26N 53°23' W 003°00'0 0.0
2017-Jun-20 13:29N 53°23' W 003°00'0 0.0
2017-Jun-20 12:59N 53°23' W 003°00'0 0.0
2017-Jun-20 12:29N 53°23' W 003°00'0 0.0
2017-Jun-20 11:59N 53°23' W 003°00'0 0.0
2017-Jun-20 11:29N 53°23' W 003°00'0 0.0
2017-Jun-20 10:59N 53°23' W 003°00'0 0.0
2017-Jun-20 10:11N 53°23' W 003°00'0 0.0
2017-Jun-20 09:55N 53°23' W 003°00'0 0.0
2017-Jun-20 09:28N 53°23' W 003°00'0 0.0
2017-Jun-20 08:58N 53°23' W 003°00'0 0.0
2017-Jun-20 08:28N 53°23' W 003°00'0 0.0
2017-Jun-20 07:58N 53°23' W 003°00'1 1.8
2017-Jun-20 07:30N 53°24' W 003°00'3 5.6
2017-Jun-20 07:00N 53°26' W 003°01'1 1.8
2017-Jun-20 06:28N 53°25' W 003°00'0 0.0
2017-Jun-20 05:58N 53°25' W 003°00'0 0.0
2017-Jun-20 05:28N 53°25' W 003°00'0 0.0
2017-Jun-20 04:55N 53°25' W 003°00'0 0.0
2017-Jun-20 04:28N 53°25' W 003°00'0 0.0
2017-Jun-20 03:58N 53°25' W 003°00'0 0.0
2017-Jun-20 03:25N 53°25' W 003°00'0 0.0
2017-Jun-20 02:55N 53°25' W 003°00'0 0.0
2017-Jun-20 02:28N 53°25' W 003°00'0 0.0
2017-Jun-20 01:58N 53°25' W 003°00'0 0.0
2017-Jun-20 01:25N 53°25' W 003°00'0 0.0
2017-Jun-20 00:58N 53°25' W 003°00'0 0.0
2017-Jun-20 00:28N 53°25' W 003°00'0 0.0
2017-Jun-19 23:49N 53°25' W 003°00'0 0.0
2017-Jun-19 23:28N 53°25' W 003°00'0 0.0
2017-Jun-19 22:58N 53°25' W 003°00'0 0.0
2017-Jun-19 22:28N 53°25' W 003°00'0 0.0
2017-Jun-19 21:55N 53°25' W 003°00'0 0.0
2017-Jun-19 21:25N 53°25' W 003°00'0 0.0
2017-Jun-19 20:55N 53°25' W 003°00'0 0.0
2017-Jun-19 20:28N 53°25' W 003°00'0 0.0
2017-Jun-19 19:55N 53°25' W 003°00'0 0.0
2017-Jun-19 19:28N 53°25' W 003°00'0 0.0
2017-Jun-19 18:46N 53°25' W 003°00'0 0.0
2017-Jun-19 18:28N 53°25' W 003°00'0 0.0
2017-Jun-19 17:58N 53°25' W 003°00'0 0.0
2017-Jun-19 17:28N 53°25' W 003°00'0 0.0
2017-Jun-19 16:58N 53°25' W 003°00'0 0.0
2017-Jun-19 16:28N 53°25' W 003°00'0 0.0
2017-Jun-19 15:58N 53°25' W 003°00'0 0.0
2017-Jun-19 15:19N 53°25' W 003°00'0 0.0
2017-Jun-19 14:55N 53°25' W 003°00'0 0.0
2017-Jun-19 13:58N 53°25' W 003°00'0 0.0
2017-Jun-19 13:31N 53°25' W 003°00'0 0.0
2017-Jun-19 12:48N 53°25' W 003°00'0 0.0
2017-Jun-19 12:30N 53°25' W 003°00'0 0.0
2017-Jun-19 11:57N 53°25' W 003°00'0 0.0
2017-Jun-19 11:27N 53°25' W 003°00'0 0.0
2017-Jun-19 11:00N 53°25' W 003°00'0 0.0
2017-Jun-19 10:24N 53°25' W 003°00'0 0.0
2017-Jun-19 10:00N 53°25' W 003°00'0 0.0
2017-Jun-19 09:30N 53°25' W 003°00'0 0.4
2017-Jun-19 09:00N 53°26' W 003°00'2 2.9
2017-Jun-19 08:26N 53°27' W 003°01'0 0.4
2017-Jun-19 07:58N 53°27' W 003°01'0 0.0
2017-Jun-19 07:22N 53°27' W 003°01'1 3.4
2017-Jun-19 07:00N 53°26' W 003°01'3 6.2
2017-Jun-19 06:31N 53°23' W 002°60'0 0.5
2017-Jun-19 05:54N 53°23' W 002°60'2 4.3
2017-Jun-19 05:30N 53°25' W 003°01'4 8.7
2017-Jun-19 05:00N 53°29' W 003°04'5 9.4
2017-Jun-19 04:30N 53°32' W 003°10'4 7.2
2017-Jun-19 04:00N 53°31' W 003°16'510.6
2017-Jun-19 03:30N 53°31' W 003°07'510.2
2017-Jun-19 03:00N 53°27' W 003°02'5 8.1
2017-Jun-19 02:25N 53°23' W 002°60'0 0.0
2017-Jun-19 01:58N 53°23' W 002°60'0 0.0
2017-Jun-19 01:25N 53°23' W 002°60'0 0.0
2017-Jun-19 00:58N 53°23' W 002°60'0 0.0
2017-Jun-19 00:28N 53°23' W 002°60'  
Track history (hours):
 
Tides and Currents Weather Stations Pressure Air Temp Water Temp Dewpoint Dewpoint Depression Visibility Wind Speed Wind Dir Waves Ship Positions

Svitzer Stanlow

Last reported at 2017-Jun-29 00:00 UTC. Time now 2017-Jun-29 00:27 UTC.
Position N 53°27' W 003°02'.

Length 39 m.

Type: Tug. MMSI: 235010620.

Date/timePositionNaut miles runAvg speedWind from/ knotsBaromVisibWave heightAir tempDewpointWater temp
2017-Jun-29 00:00N 53°27' W 003°02'1 1.6
2017-Jun-28 23:30N 53°27' W 003°01'0 0.7
2017-Jun-28 23:00N 53°27' W 003°01'0 0.6
2017-Jun-28 22:30N 53°28' W 003°01'0 0.4
2017-Jun-28 21:58N 53°28' W 003°01'1 2.8
2017-Jun-28 21:30N 53°26' W 003°00'1 1.8
2017-Jun-28 20:59N 53°25' W 003°00'0 0.0
2017-Jun-28 20:29N 53°25' W 003°00'0 0.0
2017-Jun-28 19:59N 53°25' W 003°00'0 0.0
2017-Jun-28 19:29N 53°25' W 003°00'0 0.0
2017-Jun-28 18:59N 53°25' W 003°00'0 0.0
2017-Jun-28 18:23N 53°25' W 003°00'0 0.0
2017-Jun-28 17:59N 53°25' W 003°00'0 0.0
2017-Jun-28 17:26N 53°25' W 003°00'0 0.0
2017-Jun-28 16:56N 53°25' W 003°00'0 0.0
2017-Jun-28 16:29N 53°25' W 003°00'0 0.0
2017-Jun-28 15:59N 53°25' W 003°00'0 0.0
2017-Jun-28 15:29N 53°25' W 003°00'0 0.0
2017-Jun-28 14:59N 53°25' W 003°00'0 0.0
2017-Jun-28 13:59N 53°25' W 003°00'0 0.0
2017-Jun-28 13:29N 53°25' W 003°00'2 3.7
2017-Jun-28 13:00N 53°27' W 003°01'0 0.8
2017-Jun-28 12:29N 53°28' W 003°01'0 0.6
2017-Jun-28 11:59N 53°28' W 003°01'2 3.2
2017-Jun-28 11:17N 53°25' W 003°00'0 0.0
2017-Jun-28 10:53N 53°25' W 003°00'0 0.0
2017-Jun-28 10:29N 53°25' W 003°00'0 0.0
2017-Jun-28 09:59N 53°25' W 003°00'0 0.0
2017-Jun-28 09:26N 53°25' W 003°00'0 0.0
2017-Jun-28 08:59N 53°25' W 003°00'0 0.0
2017-Jun-28 08:29N 53°25' W 003°00'0 0.0
2017-Jun-28 07:59N 53°25' W 003°00'0 0.0
2017-Jun-28 07:26N 53°25' W 003°00'0 0.0
2017-Jun-28 06:59N 53°25' W 003°00'0 0.0
2017-Jun-28 06:29N 53°25' W 003°00'0 0.0
2017-Jun-28 05:59N 53°25' W 003°00'0 0.0
2017-Jun-28 05:29N 53°25' W 003°00'0 0.0
2017-Jun-28 04:59N 53°25' W 003°00'0 0.0
2017-Jun-28 04:23N 53°25' W 003°00'0 0.0
2017-Jun-28 03:59N 53°25' W 003°00'0 0.0
2017-Jun-28 03:29N 53°25' W 003°00'0 0.0
2017-Jun-28 02:59N 53°25' W 003°00'0 0.0
2017-Jun-28 02:26N 53°25' W 003°00'0 0.0
2017-Jun-28 01:56N 53°25' W 003°00'0 0.0
2017-Jun-28 01:29N 53°25' W 003°00'0 0.0
2017-Jun-28 00:56N 53°25' W 003°00'0 0.0
2017-Jun-28 00:29N 53°25' W 003°00'0 0.0
2017-Jun-27 23:59N 53°25' W 003°00'2 3.3
2017-Jun-27 23:30N 53°27' W 003°01'0 0.4
2017-Jun-27 23:00N 53°27' W 003°01'0 0.4
2017-Jun-27 22:25N 53°27' W 003°01'3 7.4
2017-Jun-27 22:00N 53°24' W 003°00'1 2.4
2017-Jun-27 21:30N 53°23' W 002°60'0 0.2
2017-Jun-27 20:59N 53°23' W 002°60'0 0.0
2017-Jun-27 20:23N 53°23' W 002°60'0 0.0
2017-Jun-27 19:59N 53°23' W 002°60'0 0.0
2017-Jun-27 19:29N 53°23' W 002°60'0 0.0
2017-Jun-27 18:59N 53°23' W 002°60'0 0.0
2017-Jun-27 18:29N 53°23' W 002°60'0 0.0
2017-Jun-27 17:59N 53°23' W 002°60'0 0.0
2017-Jun-27 17:29N 53°23' W 002°60'0 0.0
2017-Jun-27 16:59N 53°23' W 002°60'1 1.8
2017-Jun-27 16:30N 53°24' W 003°00'1 1.4
2017-Jun-27 15:53N 53°24' W 003°00'2 3.9
2017-Jun-27 15:26N 53°23' W 002°60'0 0.0
2017-Jun-27 14:59N 53°23' W 002°60'0 0.0
2017-Jun-27 14:23N 53°23' W 002°60'0 0.0
2017-Jun-27 13:26N 53°23' W 002°60'0 0.0
2017-Jun-27 12:59N 53°23' W 002°60'0 0.0
2017-Jun-27 12:26N 53°23' W 002°60'0 0.0
2017-Jun-27 11:59N 53°23' W 002°60'0 0.0
2017-Jun-27 11:26N 53°23' W 002°60'0 0.0
2017-Jun-27 10:59N 53°23' W 002°60'0 0.0
2017-Jun-27 10:29N 53°23' W 002°60'0 0.0
2017-Jun-27 09:56N 53°23' W 002°60'0 0.0
2017-Jun-27 09:29N 53°23' W 002°60'0 0.0
2017-Jun-27 08:47N 53°23' W 002°60'0 0.0
2017-Jun-27 08:29N 53°23' W 002°60'0 0.0
2017-Jun-27 07:59N 53°23' W 002°60'0 0.0
2017-Jun-27 07:26N 53°23' W 002°60'0 0.0
2017-Jun-27 06:59N 53°23' W 002°60'0 0.0
2017-Jun-27 06:26N 53°23' W 002°60'0 0.0
2017-Jun-27 05:56N 53°23' W 002°60'0 0.0
2017-Jun-27 05:29N 53°23' W 002°60'0 0.0
2017-Jun-27 04:59N 53°23' W 002°60'0 0.0
2017-Jun-27 04:26N 53°23' W 002°60'0 0.0
2017-Jun-27 03:56N 53°23' W 002°60'0 0.0
2017-Jun-27 03:29N 53°23' W 002°60'0 0.0
2017-Jun-27 02:56N 53°23' W 002°60'0 0.0
2017-Jun-27 02:26N 53°23' W 002°60'0 0.0
2017-Jun-27 01:56N 53°23' W 002°60'0 0.0
2017-Jun-27 01:26N 53°23' W 002°60'0 0.0
2017-Jun-27 00:59N 53°23' W 002°60'4 7.1
2017-Jun-27 00:25N 53°27' W 003°01'0 0.4
2017-Jun-27 00:00N 53°26' W 003°01'4 7.2
2017-Jun-26 23:30N 53°23' W 002°60'0 0.6
2017-Jun-26 23:00N 53°23' W 002°60'0 0.0
2017-Jun-26 22:30N 53°23' W 002°60'0 0.0
2017-Jun-26 22:00N 53°23' W 002°60'0 0.0
2017-Jun-26 21:24N 53°23' W 002°60'0 0.0
2017-Jun-26 21:00N 53°23' W 002°60'0 0.0
2017-Jun-26 20:30N 53°23' W 002°60'0 0.0
2017-Jun-26 20:00N 53°23' W 002°60'0 0.0
2017-Jun-26 19:27N 53°23' W 002°60'0 0.0
2017-Jun-26 19:00N 53°23' W 002°60'0 0.0
2017-Jun-26 18:29N 53°23' W 002°60'0 0.0
2017-Jun-26 17:53N 53°23' W 002°60'0 0.0
2017-Jun-26 17:26N 53°23' W 002°60'0 0.0
2017-Jun-26 16:59N 53°23' W 002°60'0 0.0
2017-Jun-26 16:26N 53°23' W 002°60'0 0.0
2017-Jun-26 15:59N 53°23' W 002°60'0 0.0
2017-Jun-26 15:26N 53°23' W 002°60'0 0.0
2017-Jun-26 14:56N 53°23' W 002°60'0 0.0
2017-Jun-26 14:29N 53°23' W 002°60'0 0.0
2017-Jun-26 13:29N 53°23' W 002°60'0 0.4
2017-Jun-26 12:53N 53°23' W 003°00'0 1.0
2017-Jun-26 12:29N 53°23' W 003°00'2 5.2
2017-Jun-26 12:00N 53°26' W 003°01'4 8.8
2017-Jun-26 11:30N 53°29' W 003°05'4 8.5
2017-Jun-26 11:00N 53°32' W 003°11'5 9.0
2017-Jun-26 10:30N 53°29' W 003°05'4 7.7
2017-Jun-26 10:00N 53°26' W 003°01'2 3.3
2017-Jun-26 09:29N 53°25' W 003°00'3 5.4
2017-Jun-26 09:00N 53°27' W 003°01'0 0.2
2017-Jun-26 08:30N 53°27' W 003°01'2 3.6
2017-Jun-26 08:00N 53°25' W 003°00'0 0.0
2017-Jun-26 07:30N 53°25' W 003°00'0 0.0
2017-Jun-26 07:00N 53°25' W 003°00'0 0.0
2017-Jun-26 06:29N 53°25' W 003°00'0 0.0
2017-Jun-26 05:59N 53°25' W 003°00'0 0.0
2017-Jun-26 05:29N 53°25' W 003°00'0 0.0
2017-Jun-26 04:59N 53°25' W 003°00'0 0.0
2017-Jun-26 04:29N 53°25' W 003°00'0 0.0
2017-Jun-26 03:56N 53°25' W 003°00'0 0.0
2017-Jun-26 03:29N 53°25' W 003°00'0 0.0
2017-Jun-26 02:56N 53°25' W 003°00'0 0.0
2017-Jun-26 02:29N 53°25' W 003°00'0 0.0
2017-Jun-26 01:56N 53°25' W 003°00'0 0.0
2017-Jun-26 01:29N 53°25' W 003°00'0 0.0
2017-Jun-26 00:59N 53°25' W 003°00'0 0.0
2017-Jun-26 00:29N 53°25' W 003°00'0 0.0
2017-Jun-25 23:59N 53°25' W 003°00'0 0.0
2017-Jun-25 23:29N 53°25' W 003°00'0 0.0
2017-Jun-25 22:59N 53°25' W 003°00'0 0.0
2017-Jun-25 22:29N 53°25' W 003°00'0 0.0
2017-Jun-25 21:59N 53°25' W 003°00'0 0.0
2017-Jun-25 21:29N 53°25' W 003°00'0 0.0
2017-Jun-25 20:59N 53°25' W 003°00'0 0.0
2017-Jun-25 20:29N 53°25' W 003°00'0 0.0
2017-Jun-25 19:59N 53°25' W 003°00'0 0.0
2017-Jun-25 19:29N 53°25' W 003°00'0 0.0
2017-Jun-25 18:59N 53°25' W 003°00'0 0.0
2017-Jun-25 18:29N 53°25' W 003°00'0 0.0
2017-Jun-25 17:59N 53°25' W 003°00'0 0.0
2017-Jun-25 17:29N 53°25' W 003°00'0 0.0
2017-Jun-25 16:59N 53°25' W 003°00'0 0.0
2017-Jun-25 16:29N 53°25' W 003°00'0 0.0
2017-Jun-25 15:59N 53°25' W 003°00'0 0.0
2017-Jun-25 15:29N 53°25' W 003°00'0 0.0
2017-Jun-25 14:59N 53°25' W 003°00'0 0.0
2017-Jun-25 14:26N 53°25' W 003°00'0 0.0
2017-Jun-25 13:29N 53°25' W 003°00'0 0.0
2017-Jun-25 12:59N 53°25' W 003°00'0 0.0
2017-Jun-25 12:29N 53°25' W 003°00'0 0.0
2017-Jun-25 11:59N 53°25' W 003°00'0 0.0
2017-Jun-25 11:29N 53°25' W 003°00'0 0.0
2017-Jun-25 10:56N 53°25' W 003°00'0 0.0
2017-Jun-25 10:29N 53°25' W 003°00'0 0.0
2017-Jun-25 09:59N 53°25' W 003°00'0 0.0
2017-Jun-25 09:26N 53°25' W 003°00'0 0.0
2017-Jun-25 08:59N 53°25' W 003°00'0 0.0
2017-Jun-25 08:29N 53°25' W 003°00'0 0.0
2017-Jun-25 07:59N 53°25' W 003°00'0 0.0
2017-Jun-25 07:29N 53°25' W 003°00'0 0.0
2017-Jun-25 06:59N 53°25' W 003°00'0 0.0
2017-Jun-25 06:29N 53°25' W 003°00'0 0.0
2017-Jun-25 05:59N 53°25' W 003°00'0 0.0
2017-Jun-25 05:29N 53°25' W 003°00'0 0.0
2017-Jun-25 04:56N 53°25' W 003°00'0 0.0
2017-Jun-25 04:29N 53°25' W 003°00'0 0.0
2017-Jun-25 03:59N 53°25' W 003°00'0 0.0
2017-Jun-25 03:29N 53°25' W 003°00'0 0.0
2017-Jun-25 02:59N 53°25' W 003°00'0 0.0
2017-Jun-25 02:26N 53°25' W 003°00'0 0.0
2017-Jun-25 01:59N 53°25' W 003°00'0 0.0
2017-Jun-25 01:29N 53°25' W 003°00'0 0.0
2017-Jun-25 00:56N 53°25' W 003°00'0 0.0
2017-Jun-25 00:29N 53°25' W 003°00'0 0.0
2017-Jun-24 23:56N 53°25' W 003°00'0 0.0
2017-Jun-24 23:29N 53°25' W 003°00'0 0.0
2017-Jun-24 22:59N 53°25' W 003°00'0 0.0
2017-Jun-24 22:29N 53°25' W 003°00'0 0.0
2017-Jun-24 21:59N 53°25' W 003°00'0 0.0
2017-Jun-24 21:28N 53°25' W 003°00'0 0.0
2017-Jun-24 20:58N 53°25' W 003°00'0 0.0
2017-Jun-24 20:28N 53°25' W 003°00'0 0.0
2017-Jun-24 19:58N 53°25' W 003°00'0 0.0
2017-Jun-24 19:22N 53°25' W 003°00'0 0.0
2017-Jun-24 18:55N 53°25' W 003°00'0 0.0
2017-Jun-24 18:28N 53°25' W 003°00'0 0.0
2017-Jun-24 17:58N 53°25' W 003°00'0 0.0
2017-Jun-24 17:28N 53°25' W 003°00'0 0.0
2017-Jun-24 16:58N 53°25' W 003°00'0 0.0
2017-Jun-24 16:28N 53°25' W 003°00'0 0.0
2017-Jun-24 15:58N 53°25' W 003°00'0 0.0
2017-Jun-24 15:25N 53°25' W 003°00'0 0.0
2017-Jun-24 14:58N 53°25' W 003°00'0 0.0
2017-Jun-24 13:58N 53°25' W 003°00'0 0.0
2017-Jun-24 13:25N 53°25' W 003°00'0 0.0
2017-Jun-24 12:58N 53°25' W 003°00'0 0.0
2017-Jun-24 12:25N 53°25' W 003°00'0 0.0
2017-Jun-24 11:58N 53°25' W 003°00'0 0.0
2017-Jun-24 11:28N 53°25' W 003°00'0 0.0
2017-Jun-24 10:58N 53°25' W 003°00'0 0.0
2017-Jun-24 10:25N 53°25' W 003°00'0 0.0
2017-Jun-24 09:58N 53°25' W 003°00'0 0.0
2017-Jun-24 09:28N 53°25' W 003°00'0 0.0
2017-Jun-24 08:58N 53°25' W 003°00'0 0.0
2017-Jun-24 08:25N 53°25' W 003°00'0 0.0
2017-Jun-24 07:58N 53°25' W 003°00'0 0.0
2017-Jun-24 07:28N 53°25' W 003°00'0 0.0
2017-Jun-24 06:58N 53°25' W 003°00'0 0.0
2017-Jun-24 06:28N 53°25' W 003°00'0 0.0
2017-Jun-24 05:58N 53°25' W 003°00'0 0.0
2017-Jun-24 05:28N 53°25' W 003°00'0 0.0
2017-Jun-24 04:58N 53°25' W 003°00'0 0.0
2017-Jun-24 04:28N 53°25' W 003°00'0 0.0
2017-Jun-24 03:58N 53°25' W 003°00'0 0.0
2017-Jun-24 03:28N 53°25' W 003°00'0 0.0
2017-Jun-24 02:58N 53°25' W 003°00'0 0.0
2017-Jun-24 02:28N 53°25' W 003°00'0 0.0
2017-Jun-24 01:58N 53°25' W 003°00'0 0.0
2017-Jun-24 01:25N 53°25' W 003°00'0 0.0
2017-Jun-24 00:58N 53°25' W 003°00'0 0.0
2017-Jun-24 00:28N 53°25' W 003°00'0 0.0
2017-Jun-23 23:58N 53°25' W 003°00'0 0.0
2017-Jun-23 23:28N 53°25' W 003°00'0 0.0
2017-Jun-23 22:58N 53°25' W 003°00'0 0.0
2017-Jun-23 22:28N 53°25' W 003°00'0 0.0
2017-Jun-23 21:55N 53°25' W 003°00'0 0.0
2017-Jun-23 21:28N 53°25' W 003°00'0 0.0
2017-Jun-23 20:58N 53°25' W 003°00'0 0.0
2017-Jun-23 20:28N 53°25' W 003°00'0 0.0
2017-Jun-23 19:58N 53°25' W 003°00'0 0.0
2017-Jun-23 19:28N 53°25' W 003°00'0 0.0
2017-Jun-23 18:58N 53°25' W 003°00'0 0.0
2017-Jun-23 18:22N 53°25' W 003°00'0 0.0
2017-Jun-23 17:58N 53°25' W 003°00'0 0.0
2017-Jun-23 17:28N 53°25' W 003°00'0 0.0
2017-Jun-23 16:58N 53°25' W 003°00'0 0.0
2017-Jun-23 16:25N 53°25' W 003°00'0 0.0
2017-Jun-23 15:58N 53°25' W 003°00'0 0.0
2017-Jun-23 15:28N 53°25' W 003°00'0 0.0
2017-Jun-23 14:58N 53°25' W 003°00'0 0.0
2017-Jun-23 13:58N 53°25' W 003°00'0 0.0
2017-Jun-23 13:28N 53°25' W 003°00'0 0.0
2017-Jun-23 12:55N 53°25' W 003°00'0 0.0
2017-Jun-23 12:24N 53°25' W 003°00'0 0.0
2017-Jun-23 12:00N 53°25' W 003°00'0 0.0
2017-Jun-23 11:27N 53°25' W 003°00'0 0.0
2017-Jun-23 10:57N 53°25' W 003°00'0 0.0
2017-Jun-23 10:30N 53°25' W 003°00'0 0.0
2017-Jun-23 10:00N 53°25' W 003°00'0 0.0
2017-Jun-23 09:30N 53°25' W 003°00'0 0.0
2017-Jun-23 08:57N 53°25' W 003°00'0 0.0
2017-Jun-23 08:30N 53°25' W 003°00'0 0.0
2017-Jun-23 08:00N 53°25' W 003°00'0 0.0
2017-Jun-23 07:30N 53°25' W 003°00'0 0.0
2017-Jun-23 07:00N 53°25' W 003°00'0 0.0
2017-Jun-23 06:27N 53°25' W 003°00'0 0.0
2017-Jun-23 06:00N 53°25' W 003°00'0 0.0
2017-Jun-23 05:30N 53°25' W 003°00'0 0.0
2017-Jun-23 04:57N 53°25' W 003°00'0 0.0
2017-Jun-23 04:30N 53°25' W 003°00'0 0.0
2017-Jun-23 04:00N 53°25' W 003°00'0 0.0
2017-Jun-23 03:30N 53°25' W 003°00'0 0.0
2017-Jun-23 03:00N 53°25' W 003°00'0 0.0
2017-Jun-23 02:27N 53°25' W 003°00'0 0.0
2017-Jun-23 01:57N 53°25' W 003°00'0 0.0
2017-Jun-23 01:30N 53°25' W 003°00'0 0.0
2017-Jun-23 00:57N 53°25' W 003°00'0 0.0
2017-Jun-23 00:30N 53°25' W 003°00'0 0.0
2017-Jun-23 00:00N 53°25' W 003°00'0 0.0
2017-Jun-22 23:27N 53°25' W 003°00'0 0.0
2017-Jun-22 22:57N 53°25' W 003°00'0 0.0
2017-Jun-22 22:30N 53°25' W 003°00'0 0.0
2017-Jun-22 22:00N 53°25' W 003°00'0 0.0
2017-Jun-22 21:24N 53°25' W 003°00'0 0.0
2017-Jun-22 21:00N 53°25' W 003°00'0 0.0
2017-Jun-22 20:30N 53°25' W 003°00'0 0.0
2017-Jun-22 19:51N 53°25' W 003°00'0 0.0
2017-Jun-22 19:30N 53°25' W 003°00'0 0.0
2017-Jun-22 18:57N 53°25' W 003°00'0 0.0
2017-Jun-22 18:30N 53°25' W 003°00'0 0.0
2017-Jun-22 18:00N 53°25' W 003°00'0 0.0
2017-Jun-22 17:30N 53°25' W 003°00'0 0.0
2017-Jun-22 17:00N 53°25' W 003°00'0 0.0
2017-Jun-22 16:30N 53°25' W 003°00'0 0.0
2017-Jun-22 16:00N 53°25' W 003°00'0 0.0
2017-Jun-22 15:24N 53°25' W 003°00'0 0.0
2017-Jun-22 15:00N 53°25' W 003°00'0 0.0
2017-Jun-22 14:00N 53°25' W 003°00'0 0.0
2017-Jun-22 13:30N 53°25' W 003°00'0 0.0
2017-Jun-22 13:00N 53°25' W 003°00'0 0.0
2017-Jun-22 12:30N 53°25' W 003°00'0 0.0
2017-Jun-22 11:57N 53°25' W 003°00'0 0.0
2017-Jun-22 11:27N 53°25' W 003°00'0 0.0
2017-Jun-22 11:00N 53°25' W 003°00'0 0.0
2017-Jun-22 10:30N 53°25' W 003°00'0 0.0
2017-Jun-22 10:00N 53°25' W 003°00'0 0.0
2017-Jun-22 09:30N 53°25' W 003°00'0 0.0
2017-Jun-22 08:57N 53°25' W 003°00'1 1.2
2017-Jun-22 08:30N 53°26' W 003°00'1 2.9
2017-Jun-22 08:00N 53°27' W 003°01'0 0.6
2017-Jun-22 07:30N 53°28' W 003°01'0 0.1
2017-Jun-22 07:00N 53°28' W 003°01'0 0.0
2017-Jun-22 06:30N 53°28' W 003°01'0 0.0
2017-Jun-22 06:00N 53°28' W 003°01'2 4.1
2017-Jun-22 05:28N 53°25' W 003°00'0 0.0
2017-Jun-22 04:58N 53°25' W 003°00'0 0.0
2017-Jun-22 04:30N 53°25' W 003°00'0 0.0
2017-Jun-22 04:00N 53°25' W 003°00'0 0.0
2017-Jun-22 03:30N 53°25' W 003°00'0 0.0
2017-Jun-22 03:00N 53°25' W 003°00'0 0.0
2017-Jun-22 02:30N 53°25' W 003°00'0 0.0
2017-Jun-22 02:00N 53°25' W 003°00'0 0.0
2017-Jun-22 01:30N 53°25' W 003°00'0 0.0
2017-Jun-22 01:00N 53°25' W 003°00'0 0.0
2017-Jun-22 00:30N 53°25' W 003°00'0 0.0
2017-Jun-22 00:00N 53°25' W 003°00'0 0.0
2017-Jun-21 23:30N 53°25' W 003°00'0 0.0
2017-Jun-21 23:00N 53°25' W 003°00'0 0.0
2017-Jun-21 22:30N 53°25' W 003°00'0 0.0
2017-Jun-21 22:00N 53°25' W 003°00'0 0.0
2017-Jun-21 21:30N 53°25' W 003°00'0 0.0
2017-Jun-21 21:00N 53°25' W 003°00'0 0.0
2017-Jun-21 20:30N 53°25' W 003°00'0 0.0
2017-Jun-21 20:00N 53°25' W 003°00'0 0.0
2017-Jun-21 19:30N 53°25' W 003°00'0 0.0
2017-Jun-21 18:57N 53°25' W 003°00'0 0.0
2017-Jun-21 18:30N 53°25' W 003°00'0 0.0
2017-Jun-21 18:00N 53°25' W 003°00'0 0.0
2017-Jun-21 17:30N 53°25' W 003°00'0 0.0
2017-Jun-21 16:57N 53°25' W 003°00'0 0.0
2017-Jun-21 16:27N 53°25' W 003°00'0 0.0
2017-Jun-21 16:00N 53°25' W 003°00'0 0.0
2017-Jun-21 15:30N 53°25' W 003°00'0 0.0
2017-Jun-21 14:57N 53°25' W 003°00'0 0.0
2017-Jun-21 14:00N 53°25' W 003°00'0 0.0
2017-Jun-21 13:30N 53°25' W 003°00'0 0.0
2017-Jun-21 12:57N 53°25' W 003°00'0 0.0
2017-Jun-21 12:30N 53°25' W 003°00'0 0.0
2017-Jun-21 12:00N 53°25' W 003°00'0 0.0
2017-Jun-21 11:27N 53°25' W 003°00'0 0.0
2017-Jun-21 11:00N 53°25' W 003°00'0 0.0
2017-Jun-21 10:30N 53°25' W 003°00'0 0.0
2017-Jun-21 10:00N 53°25' W 003°00'0 0.0
2017-Jun-21 09:30N 53°25' W 003°00'0 0.0
2017-Jun-21 09:00N 53°25' W 003°00'0 0.0
2017-Jun-21 08:30N 53°25' W 003°00'0 0.0
2017-Jun-21 08:00N 53°25' W 003°00'1 2.4
2017-Jun-21 07:31N 53°27' W 003°01'1 1.8
2017-Jun-21 06:59N 53°27' W 003°01'0 0.6
2017-Jun-21 06:30N 53°27' W 003°01'2 3.5
2017-Jun-21 05:59N 53°25' W 003°00'0 0.0
2017-Jun-21 05:29N 53°25' W 003°00'0 0.0
2017-Jun-21 04:59N 53°25' W 003°00'0 0.0
2017-Jun-21 04:29N 53°25' W 003°00'0 0.0
2017-Jun-21 03:59N 53°25' W 003°00'0 0.0
2017-Jun-21 03:29N 53°25' W 003°00'0 0.0
2017-Jun-21 02:56N 53°25' W 003°00'0 0.0
2017-Jun-21 02:29N 53°25' W 003°00'0 0.0
2017-Jun-21 01:59N 53°25' W 003°00'0 0.0
2017-Jun-21 01:29N 53°25' W 003°00'0 0.0
2017-Jun-21 00:56N 53°25' W 003°00'0 0.0
2017-Jun-21 00:29N 53°25' W 003°00'0 0.0
2017-Jun-20 23:59N 53°25' W 003°00'0 0.0
2017-Jun-20 23:29N 53°25' W 003°00'0 0.0
2017-Jun-20 22:56N 53°25' W 003°00'0 0.0
2017-Jun-20 22:29N 53°25' W 003°00'0 0.0
2017-Jun-20 21:59N 53°25' W 003°00'0 0.0
2017-Jun-20 21:23N 53°25' W 003°00'0 0.0
2017-Jun-20 20:56N 53°25' W 003°00'0 0.0
2017-Jun-20 20:29N 53°25' W 003°00'1 2.1
2017-Jun-20 20:00N 53°26' W 003°00'0 0.3
2017-Jun-20 19:28N 53°26' W 003°01'2 3.8
2017-Jun-20 19:00N 53°25' W 003°00'2 3.9
2017-Jun-20 18:30N 53°23' W 002°60'0 0.2
2017-Jun-20 18:00N 53°23' W 002°60'0 0.3
2017-Jun-20 17:26N 53°23' W 003°00'0 0.0
2017-Jun-20 16:59N 53°23' W 003°00'0 0.0
2017-Jun-20 16:29N 53°23' W 003°00'0 0.0
2017-Jun-20 15:59N 53°23' W 003°00'0 0.0
2017-Jun-20 15:29N 53°23' W 003°00'0 0.0
2017-Jun-20 14:59N 53°23' W 003°00'0 0.0
2017-Jun-20 14:26N 53°23' W 003°00'0 0.0
2017-Jun-20 13:29N 53°23' W 003°00'0 0.0
2017-Jun-20 12:59N 53°23' W 003°00'0 0.0
2017-Jun-20 12:29N 53°23' W 003°00'0 0.0
2017-Jun-20 11:59N 53°23' W 003°00'0 0.0
2017-Jun-20 11:29N 53°23' W 003°00'0 0.0
2017-Jun-20 10:59N 53°23' W 003°00'0 0.0
2017-Jun-20 10:11N 53°23' W 003°00'0 0.0
2017-Jun-20 09:55N 53°23' W 003°00'0 0.0
2017-Jun-20 09:28N 53°23' W 003°00'0 0.0
2017-Jun-20 08:58N 53°23' W 003°00'0 0.0
2017-Jun-20 08:28N 53°23' W 003°00'0 0.0
2017-Jun-20 07:58N 53°23' W 003°00'1 1.8
2017-Jun-20 07:30N 53°24' W 003°00'3 5.6
2017-Jun-20 07:00N 53°26' W 003°01'1 1.8
2017-Jun-20 06:28N 53°25' W 003°00'0 0.0
2017-Jun-20 05:58N 53°25' W 003°00'0 0.0
2017-Jun-20 05:28N 53°25' W 003°00'0 0.0
2017-Jun-20 04:55N 53°25' W 003°00'0 0.0
2017-Jun-20 04:28N 53°25' W 003°00'0 0.0
2017-Jun-20 03:58N 53°25' W 003°00'0 0.0
2017-Jun-20 03:25N 53°25' W 003°00'0 0.0
2017-Jun-20 02:55N 53°25' W 003°00'0 0.0
2017-Jun-20 02:28N 53°25' W 003°00'0 0.0
2017-Jun-20 01:58N 53°25' W 003°00'0 0.0
2017-Jun-20 01:25N 53°25' W 003°00'0 0.0
2017-Jun-20 00:58N 53°25' W 003°00'0 0.0
2017-Jun-20 00:28N 53°25' W 003°00'0 0.0
2017-Jun-19 23:49N 53°25' W 003°00'0 0.0
2017-Jun-19 23:28N 53°25' W 003°00'0 0.0
2017-Jun-19 22:58N 53°25' W 003°00'0 0.0
2017-Jun-19 22:28N 53°25' W 003°00'0 0.0
2017-Jun-19 21:55N 53°25' W 003°00'0 0.0
2017-Jun-19 21:25N 53°25' W 003°00'0 0.0
2017-Jun-19 20:55N 53°25' W 003°00'0 0.0
2017-Jun-19 20:28N 53°25' W 003°00'0 0.0
2017-Jun-19 19:55N 53°25' W 003°00'0 0.0
2017-Jun-19 19:28N 53°25' W 003°00'0 0.0
2017-Jun-19 18:46N 53°25' W 003°00'0 0.0
2017-Jun-19 18:28N 53°25' W 003°00'0 0.0
2017-Jun-19 17:58N 53°25' W 003°00'0 0.0
2017-Jun-19 17:28N 53°25' W 003°00'0 0.0
2017-Jun-19 16:58N 53°25' W 003°00'0 0.0
2017-Jun-19 16:28N 53°25' W 003°00'0 0.0
2017-Jun-19 15:58N 53°25' W 003°00'0 0.0
2017-Jun-19 15:19N 53°25' W 003°00'0 0.0
2017-Jun-19 14:55N 53°25' W 003°00'0 0.0
2017-Jun-19 13:58N 53°25' W 003°00'0 0.0
2017-Jun-19 13:31N 53°25' W 003°00'0 0.0
2017-Jun-19 12:48N 53°25' W 003°00'0 0.0
2017-Jun-19 12:30N 53°25' W 003°00'0 0.0
2017-Jun-19 11:57N 53°25' W 003°00'0 0.0
2017-Jun-19 11:27N 53°25' W 003°00'0 0.0
2017-Jun-19 11:00N 53°25' W 003°00'0 0.0
2017-Jun-19 10:24N 53°25' W 003°00'0 0.0
2017-Jun-19 10:00N 53°25' W 003°00'0 0.0
2017-Jun-19 09:30N 53°25' W 003°00'0 0.4
2017-Jun-19 09:00N 53°26' W 003°00'2 2.9
2017-Jun-19 08:26N 53°27' W 003°01'0 0.4
2017-Jun-19 07:58N 53°27' W 003°01'0 0.0
2017-Jun-19 07:22N 53°27' W 003°01'1 3.4
2017-Jun-19 07:00N 53°26' W 003°01'3 6.2
2017-Jun-19 06:31N 53°23' W 002°60'0 0.5
2017-Jun-19 05:54N 53°23' W 002°60'2 4.3
2017-Jun-19 05:30N 53°25' W 003°01'4 8.7
2017-Jun-19 05:00N 53°29' W 003°04'5 9.4
2017-Jun-19 04:30N 53°32' W 003°10'4 7.2
2017-Jun-19 04:00N 53°31' W 003°16'510.6
2017-Jun-19 03:30N 53°31' W 003°07'510.2
2017-Jun-19 03:00N 53°27' W 003°02'5 8.1
2017-Jun-19 02:25N 53°23' W 002°60'0 0.0
2017-Jun-19 01:58N 53°23' W 002°60'0 0.0
2017-Jun-19 01:25N 53°23' W 002°60'0 0.0
2017-Jun-19 00:58N 53°23' W 002°60'0 0.0
2017-Jun-19 00:28N 53°23' W 002°60'  

Dump ship's entire track history